createdAt,value
2018-09-23T00:01:40.976Z,100.00
2018-09-23T00:04:08.068Z,100.00
2018-09-23T00:06:35.181Z,100.00
2018-09-23T00:09:02.416Z,100.00
2018-09-23T00:11:29.545Z,100.00
2018-09-23T00:13:56.689Z,100.00
2018-09-23T00:16:23.842Z,100.00
2018-09-23T00:18:50.988Z,100.00
2018-09-23T00:21:18.109Z,100.00
2018-09-23T00:23:45.276Z,100.00
2018-09-23T00:26:12.390Z,100.00
2018-09-23T00:28:39.513Z,100.00
2018-09-23T00:31:06.744Z,100.00
2018-09-23T00:33:33.885Z,100.00
2018-09-23T00:36:01.025Z,100.00
2018-09-23T00:38:28.163Z,100.00
2018-09-23T00:40:55.259Z,100.00
2018-09-23T00:43:22.365Z,100.00
2018-09-23T00:45:49.609Z,100.00
2018-09-23T00:48:16.734Z,100.00
2018-09-23T00:50:43.905Z,100.00
2018-09-23T00:53:11.064Z,100.00
2018-09-23T00:55:38.211Z,100.00
2018-09-23T00:58:05.312Z,100.00
2018-09-23T01:00:32.501Z,100.00
2018-09-23T01:02:59.605Z,100.00
2018-09-23T01:05:26.693Z,100.00
2018-09-23T01:07:53.841Z,100.00
2018-09-23T01:10:21.087Z,100.00
2018-09-23T01:12:48.185Z,100.00
2018-09-23T01:15:15.347Z,100.00
2018-09-23T01:17:42.538Z,100.00
2018-09-23T01:20:09.697Z,100.00
2018-09-23T01:22:36.880Z,100.00
2018-09-23T01:25:04.234Z,100.00
2018-09-23T01:27:31.353Z,100.00
2018-09-23T01:29:58.546Z,100.00
2018-09-23T01:32:26.034Z,100.00
2018-09-23T01:34:53.173Z,100.00
2018-09-23T01:37:20.401Z,100.00
2018-09-23T01:39:47.519Z,100.00
2018-09-23T01:42:14.696Z,100.00
2018-09-23T01:44:41.869Z,100.00
2018-09-23T01:47:09.008Z,100.00
2018-09-23T01:49:36.141Z,100.00
2018-09-23T01:52:03.397Z,100.00
2018-09-23T01:54:30.568Z,100.00
2018-09-23T01:56:57.748Z,100.00
2018-09-23T01:59:24.985Z,100.00
2018-09-23T02:01:52.119Z,100.00
2018-09-23T02:04:19.228Z,100.00
2018-09-23T02:06:46.409Z,100.00
2018-09-23T02:09:13.562Z,100.00
2018-09-23T02:11:40.684Z,100.00
2018-09-23T02:14:07.906Z,100.00
2018-09-23T02:16:35.049Z,100.00
2018-09-23T02:19:02.240Z,100.00
2018-09-23T02:21:29.430Z,100.00
2018-09-23T02:23:56.553Z,100.00
2018-09-23T02:26:23.742Z,100.00
2018-09-23T02:28:50.946Z,100.00
2018-09-23T02:31:18.155Z,100.00
2018-09-23T02:33:45.423Z,100.00
2018-09-23T02:36:12.602Z,100.00
2018-09-23T02:38:39.750Z,100.00
2018-09-23T02:41:06.892Z,100.00
2018-09-23T02:43:34.104Z,100.00
2018-09-23T02:46:01.348Z,100.00
2018-09-23T02:48:28.489Z,100.00
2018-09-23T02:50:55.713Z,100.00
2018-09-23T02:53:22.916Z,100.00
2018-09-23T02:55:50.038Z,100.00
2018-09-23T02:58:17.245Z,100.00
2018-09-23T03:00:44.378Z,100.00
2018-09-23T03:03:11.503Z,100.00
2018-09-23T03:05:38.769Z,100.00
2018-09-23T03:08:05.916Z,100.00
2018-09-23T03:10:33.049Z,100.00
2018-09-23T03:13:00.224Z,100.00
2018-09-23T03:15:27.369Z,100.00
2018-09-23T03:17:54.654Z,100.00
2018-09-23T03:20:21.868Z,100.00
2018-09-23T03:22:49.000Z,100.00
2018-09-23T03:25:16.142Z,100.00
2018-09-23T03:27:43.313Z,100.00
2018-09-23T03:30:10.440Z,100.00
2018-09-23T03:32:37.605Z,100.00
2018-09-23T03:35:04.811Z,100.00
2018-09-23T03:37:32.022Z,100.00
2018-09-23T03:39:59.201Z,100.00
2018-09-23T03:42:26.451Z,100.00
2018-09-23T03:44:53.597Z,100.00
2018-09-23T03:47:20.744Z,100.00
2018-09-23T03:49:47.917Z,100.00
2018-09-23T03:52:15.064Z,100.00
2018-09-23T03:54:42.202Z,100.00
2018-09-23T03:57:09.385Z,100.00
2018-09-23T03:59:36.510Z,100.00
2018-09-23T04:02:03.743Z,100.00
2018-09-23T04:04:38.074Z,100.00
2018-09-23T04:07:05.241Z,100.00
2018-09-23T04:09:33.084Z,100.00
2018-09-23T04:12:00.360Z,100.00
2018-09-23T04:14:27.448Z,100.00
2018-09-23T04:16:54.637Z,100.00
2018-09-23T04:19:21.887Z,100.00
2018-09-23T04:21:48.996Z,100.00
2018-09-23T04:24:16.124Z,100.00
2018-09-23T04:26:43.341Z,100.00
2018-09-23T04:29:10.464Z,100.00
2018-09-23T04:31:37.593Z,100.00
2018-09-23T04:34:04.766Z,100.00
2018-09-23T04:36:31.904Z,100.00
2018-09-23T04:38:59.042Z,100.00
2018-09-23T04:41:26.532Z,100.00
2018-09-23T04:43:53.790Z,100.00
2018-09-23T04:46:20.933Z,100.00
2018-09-23T04:48:48.124Z,100.00
2018-09-23T04:51:15.266Z,100.00
2018-09-23T04:53:42.402Z,100.00
2018-09-23T04:56:09.580Z,100.00
2018-09-23T04:58:36.723Z,100.00
2018-09-23T05:01:03.849Z,100.00
2018-09-23T05:03:31.044Z,100.00
2018-09-23T05:05:58.182Z,100.00
2018-09-23T05:08:25.350Z,100.00
2018-09-23T05:10:52.557Z,100.00
2018-09-23T05:13:19.732Z,100.00
2018-09-23T05:15:46.865Z,100.00
2018-09-23T05:18:14.048Z,100.00
2018-09-23T05:20:41.260Z,100.00
2018-09-23T05:23:08.377Z,100.00
2018-09-23T05:25:35.584Z,100.00
2018-09-23T05:28:02.733Z,100.00
2018-09-23T05:30:29.877Z,100.00
2018-09-23T05:32:57.109Z,100.00
2018-09-23T05:35:24.265Z,100.00
2018-09-23T05:37:51.393Z,100.00
2018-09-23T05:40:18.569Z,100.00
2018-09-23T05:42:45.742Z,100.00
2018-09-23T05:45:12.888Z,100.00
2018-09-23T05:47:40.082Z,100.00
2018-09-23T05:50:07.292Z,100.00
2018-09-23T05:52:34.453Z,100.00
2018-09-23T05:55:01.617Z,100.00
2018-09-23T05:57:28.744Z,100.00
2018-09-23T05:59:56.593Z,100.00
2018-09-23T06:02:24.674Z,100.00
2018-09-23T06:04:51.885Z,100.00
2018-09-23T06:07:19.041Z,100.00
2018-09-23T06:09:46.480Z,100.00
2018-09-23T06:12:13.623Z,100.00
2018-09-23T06:14:40.757Z,100.00
2018-09-23T06:17:08.221Z,100.00
2018-09-23T06:19:35.366Z,100.00
2018-09-23T06:22:02.651Z,100.00
2018-09-23T06:24:29.873Z,100.00
2018-09-23T06:26:57.001Z,100.00
2018-09-23T06:29:24.125Z,100.00
2018-09-23T06:31:51.323Z,100.00
2018-09-23T06:34:18.531Z,100.00
2018-09-23T06:36:45.657Z,98.30
2018-09-23T06:39:12.913Z,99.15
2018-09-23T06:41:40.050Z,100.00
2018-09-23T06:44:07.228Z,97.98
2018-09-23T06:46:34.461Z,100.00
2018-09-23T06:49:01.663Z,100.00
2018-09-23T06:51:28.793Z,100.00
2018-09-23T06:53:55.977Z,100.00
2018-09-23T06:56:23.160Z,99.15
2018-09-23T06:58:50.366Z,100.00
2018-09-23T07:01:17.548Z,96.51
2018-09-23T07:03:45.741Z,96.96
2018-09-23T07:06:12.955Z,98.79
2018-09-23T07:08:40.224Z,97.88
2018-09-23T07:11:07.392Z,96.88
2018-09-23T07:13:34.521Z,96.90
2018-09-23T07:16:02.116Z,98.04
2018-09-23T07:18:29.259Z,91.54
2018-09-23T07:20:56.533Z,93.60
2018-09-23T07:23:27.653Z,93.30
2018-09-23T07:25:54.809Z,93.71
2018-09-23T07:28:21.957Z,90.25
2018-09-23T07:30:49.392Z,92.42
2018-09-23T07:33:16.551Z,91.29
2018-09-23T07:35:43.889Z,90.62
2018-09-23T07:38:11.062Z,87.34
2018-09-23T07:40:38.238Z,87.37
2018-09-23T07:43:05.425Z,88.07
2018-09-23T07:45:32.622Z,83.16
2018-09-23T07:48:00.135Z,87.07
2018-09-23T07:50:27.256Z,88.92
2018-09-23T07:52:54.562Z,87.79
2018-09-23T07:55:21.764Z,85.26
2018-09-23T07:57:48.909Z,85.99
2018-09-23T08:00:16.149Z,86.16
2018-09-23T08:02:43.329Z,83.74
2018-09-23T08:05:10.480Z,81.64
2018-09-23T08:07:41.825Z,82.82
2018-09-23T08:10:09.172Z,82.32
2018-09-23T08:12:36.468Z,78.23
2018-09-23T08:15:07.283Z,83.34
2018-09-23T08:17:34.510Z,86.70
2018-09-23T08:20:02.083Z,85.39
2018-09-23T08:22:30.710Z,80.54
2018-09-23T08:24:59.251Z,85.38
2018-09-23T08:27:26.404Z,83.94
2018-09-23T08:29:53.608Z,80.50
2018-09-23T08:32:20.752Z,84.63
2018-09-23T08:34:47.917Z,84.19
2018-09-23T08:37:15.246Z,82.91
2018-09-23T08:39:46.600Z,82.73
2018-09-23T08:42:13.774Z,75.76
2018-09-23T08:44:40.982Z,79.26
2018-09-23T08:47:08.143Z,76.65
2018-09-23T08:49:35.392Z,78.47
2018-09-23T08:52:02.599Z,79.07
2018-09-23T08:54:29.742Z,74.57
2018-09-23T08:56:57.050Z,79.44
2018-09-23T08:59:24.261Z,78.74
2018-09-23T09:01:51.482Z,70.57
2018-09-23T09:04:18.606Z,71.18
2018-09-23T09:06:45.789Z,73.61
2018-09-23T09:09:12.904Z,70.68
2018-09-23T09:11:40.085Z,72.70
2018-09-23T09:14:07.245Z,72.59
2018-09-23T09:16:34.380Z,75.73
2018-09-23T09:19:01.547Z,77.12
2018-09-23T09:21:28.754Z,74.89
2018-09-23T09:23:55.865Z,73.32
2018-09-23T09:26:22.988Z,73.81
2018-09-23T09:28:50.301Z,69.66
2018-09-23T09:31:17.417Z,72.64
2018-09-23T09:33:44.645Z,71.71
2018-09-23T09:36:11.852Z,67.33
2018-09-23T09:38:39.007Z,70.57
2018-09-23T09:41:06.343Z,64.42
2018-09-23T09:43:33.597Z,67.46
2018-09-23T09:46:00.766Z,71.58
2018-09-23T09:48:27.921Z,68.05
2018-09-23T09:50:55.126Z,72.01
2018-09-23T09:53:22.390Z,70.01
2018-09-23T09:55:49.675Z,65.22
2018-09-23T09:58:17.109Z,61.74
2018-09-23T10:00:44.282Z,65.12
2018-09-23T10:03:11.544Z,65.87
2018-09-23T10:05:38.981Z,63.43
2018-09-23T10:08:06.182Z,62.91
2018-09-23T10:10:33.335Z,66.19
2018-09-23T10:13:00.886Z,68.50
2018-09-23T10:15:28.129Z,71.98
2018-09-23T10:17:55.302Z,70.04
2018-09-23T10:20:22.557Z,68.37
2018-09-23T10:22:49.887Z,68.00
2018-09-23T10:25:16.907Z,72.04
2018-09-23T10:27:44.127Z,70.14
2018-09-23T10:30:11.273Z,66.90
2018-09-23T10:32:38.590Z,68.58
2018-09-23T10:35:05.974Z,72.97
2018-09-23T10:37:33.224Z,73.07
2018-09-23T10:40:00.393Z,73.87
2018-09-23T10:42:27.688Z,77.97
2018-09-23T10:44:55.103Z,75.49
2018-09-23T10:47:22.289Z,74.46
2018-09-23T10:49:49.500Z,74.88
2018-09-23T10:52:17.493Z,74.51
2018-09-23T10:54:44.721Z,73.41
2018-09-23T10:57:11.950Z,71.57
2018-09-23T10:59:39.399Z,75.62
2018-09-23T11:02:06.605Z,73.24
2018-09-23T11:04:33.931Z,73.88
2018-09-23T11:07:01.207Z,74.87
2018-09-23T11:09:28.341Z,77.17
2018-09-23T11:11:55.512Z,79.78
2018-09-23T11:14:22.646Z,79.78
2018-09-23T11:16:49.967Z,83.18
2018-09-23T11:19:17.183Z,81.33
2018-09-23T11:21:44.358Z,81.17
2018-09-23T11:24:11.581Z,81.10
2018-09-23T11:26:38.774Z,83.45
2018-09-23T11:29:06.054Z,83.67
2018-09-23T11:31:33.196Z,85.18
2018-09-23T11:34:00.477Z,84.76
2018-09-23T11:36:27.781Z,84.59
2018-09-23T11:38:54.985Z,89.33
2018-09-23T11:41:22.213Z,89.21
2018-09-23T11:43:49.376Z,91.12
2018-09-23T11:46:16.525Z,91.80
2018-09-23T11:48:43.710Z,95.91
2018-09-23T11:51:10.948Z,93.73
2018-09-23T11:53:38.076Z,93.11
2018-09-23T11:56:06.220Z,96.06
2018-09-23T11:58:33.389Z,96.35
2018-09-23T12:01:00.669Z,100.00
2018-09-23T12:03:34.644Z,100.00
2018-09-23T12:06:02.290Z,100.00
2018-09-23T12:08:29.582Z,100.00
2018-09-23T12:10:56.829Z,100.00
2018-09-23T12:13:24.001Z,100.00
2018-09-23T12:15:51.230Z,100.00
2018-09-23T12:18:18.605Z,100.00
2018-09-23T12:20:45.793Z,100.00
2018-09-23T12:23:12.925Z,100.00
2018-09-23T12:25:40.264Z,100.00
2018-09-23T12:28:07.383Z,100.00
2018-09-23T12:30:34.770Z,100.00
2018-09-23T12:33:02.149Z,100.00
2018-09-23T12:35:29.341Z,100.00
2018-09-23T12:37:57.684Z,100.00
2018-09-23T12:40:24.888Z,100.00
2018-09-23T12:42:52.081Z,100.00
2018-09-23T12:45:19.206Z,100.00
2018-09-23T12:47:46.384Z,100.00
2018-09-23T12:50:13.596Z,100.00
2018-09-23T12:52:40.776Z,100.00
2018-09-23T12:55:08.093Z,100.00
2018-09-23T12:57:35.237Z,100.00
2018-09-23T13:00:02.528Z,100.00
2018-09-23T13:02:29.893Z,100.00
2018-09-23T13:04:57.069Z,100.00
2018-09-23T13:07:24.219Z,100.00
2018-09-23T13:09:51.682Z,100.00
2018-09-23T13:12:18.933Z,100.00
2018-09-23T13:14:46.201Z,100.00
2018-09-23T13:17:13.417Z,100.00
2018-09-23T13:19:40.758Z,100.00
2018-09-23T13:22:08.048Z,100.00
2018-09-23T13:24:35.390Z,100.00
2018-09-23T13:27:02.555Z,100.00
2018-09-23T13:29:29.781Z,100.00
2018-09-23T13:31:56.973Z,100.00
2018-09-23T13:34:24.097Z,100.00
2018-09-23T13:36:51.218Z,100.00
2018-09-23T13:39:18.440Z,100.00
2018-09-23T13:41:45.545Z,100.00
2018-09-23T13:44:13.853Z,100.00
2018-09-23T13:46:41.068Z,100.00
2018-09-23T13:49:08.148Z,100.00
2018-09-23T13:51:35.253Z,100.00
2018-09-23T13:54:02.422Z,100.00
2018-09-23T13:56:29.517Z,100.00
2018-09-23T13:58:56.641Z,100.00
2018-09-23T14:01:23.782Z,100.00
2018-09-23T14:03:50.892Z,100.00
2018-09-23T14:06:18.054Z,100.00
2018-09-23T14:08:45.248Z,100.00
2018-09-23T14:11:12.370Z,100.00
2018-09-23T14:13:39.461Z,100.00
2018-09-23T14:16:06.673Z,100.00
2018-09-23T14:18:33.769Z,100.00
2018-09-23T14:21:00.912Z,100.00
2018-09-23T14:23:28.061Z,100.00
2018-09-23T14:25:55.184Z,100.00
2018-09-23T14:28:22.276Z,100.00
2018-09-23T14:30:49.561Z,100.00
2018-09-23T14:33:16.685Z,100.00
2018-09-23T14:35:43.908Z,100.00
2018-09-23T14:38:11.242Z,100.00
2018-09-23T14:40:38.438Z,100.00
2018-09-23T14:43:05.752Z,100.00
2018-09-23T14:45:33.004Z,100.00
2018-09-23T14:48:00.481Z,100.00
2018-09-23T14:50:29.320Z,100.00
2018-09-23T14:52:57.930Z,100.00
2018-09-23T14:55:25.078Z,100.00
2018-09-23T14:57:52.325Z,100.00
2018-09-23T15:00:19.460Z,100.00
2018-09-23T15:02:46.548Z,100.00
2018-09-23T15:05:13.649Z,100.00
2018-09-23T15:07:40.828Z,100.00
2018-09-23T15:10:07.945Z,100.00
2018-09-23T15:12:35.109Z,100.00
2018-09-23T15:15:02.283Z,100.00
2018-09-23T15:17:29.396Z,100.00
2018-09-23T15:19:56.502Z,100.00
2018-09-23T15:22:23.633Z,100.00
2018-09-23T15:24:50.829Z,100.00
2018-09-23T15:27:18.000Z,100.00
2018-09-23T15:29:45.170Z,100.00
2018-09-23T15:32:12.289Z,100.00
2018-09-23T15:34:39.376Z,100.00
2018-09-23T15:37:06.662Z,100.00
2018-09-23T15:39:33.931Z,100.00
2018-09-23T15:42:01.080Z,100.00
2018-09-23T15:44:29.567Z,100.00
2018-09-23T15:46:56.769Z,100.00
2018-09-23T15:49:23.856Z,100.00
2018-09-23T15:51:51.049Z,100.00
2018-09-23T15:54:18.161Z,100.00
2018-09-23T15:56:45.308Z,100.00
2018-09-23T15:59:12.512Z,100.00
2018-09-23T16:01:39.738Z,100.00
2018-09-23T16:04:07.289Z,100.00
2018-09-23T16:06:34.433Z,100.00
2018-09-23T16:09:01.540Z,100.00
2018-09-23T16:11:28.869Z,100.00
2018-09-23T16:13:56.057Z,100.00
2018-09-23T16:16:23.186Z,100.00
2018-09-23T16:18:50.483Z,100.00
2018-09-23T16:21:17.560Z,100.00
2018-09-23T16:23:44.729Z,100.00
2018-09-23T16:26:11.903Z,100.00
2018-09-23T16:28:39.089Z,100.00
2018-09-23T16:31:06.428Z,100.00
2018-09-23T16:33:33.532Z,100.00
2018-09-23T16:36:00.716Z,100.00
2018-09-23T16:38:27.837Z,100.00
2018-09-23T16:40:54.964Z,100.00
2018-09-23T16:43:22.121Z,100.00
2018-09-23T16:45:49.233Z,100.00
2018-09-23T16:48:16.360Z,100.00
2018-09-23T16:50:43.553Z,100.00
2018-09-23T16:53:10.676Z,100.00
2018-09-23T16:55:37.817Z,100.00
2018-09-23T16:58:05.094Z,100.00
2018-09-23T17:00:32.282Z,100.00
2018-09-23T17:02:59.424Z,100.00
2018-09-23T17:05:26.671Z,100.00
2018-09-23T17:07:53.806Z,100.00
2018-09-23T17:10:21.041Z,100.00
2018-09-23T17:12:48.333Z,100.00
2018-09-23T17:15:15.451Z,100.00
2018-09-23T17:17:42.556Z,100.00
2018-09-23T17:20:09.746Z,100.00
2018-09-23T17:22:36.865Z,100.00
2018-09-23T17:25:04.105Z,100.00
2018-09-23T17:27:31.359Z,100.00
2018-09-23T17:29:58.545Z,100.00
2018-09-23T17:32:25.690Z,100.00
2018-09-23T17:34:52.889Z,100.00
2018-09-23T17:37:20.022Z,100.00
2018-09-23T17:39:47.281Z,100.00
2018-09-23T17:42:14.484Z,100.00
2018-09-23T17:44:41.608Z,100.00
2018-09-23T17:47:09.943Z,100.00
2018-09-23T17:49:37.136Z,100.00
2018-09-23T17:52:04.270Z,100.00
2018-09-23T17:54:31.486Z,100.00
2018-09-23T17:56:58.695Z,100.00
2018-09-23T17:59:25.821Z,100.00
2018-09-23T18:01:53.052Z,100.00
2018-09-23T18:04:20.292Z,100.00
2018-09-23T18:06:47.447Z,100.00
2018-09-23T18:09:14.649Z,100.00
2018-09-23T18:11:41.893Z,100.00
2018-09-23T18:14:09.065Z,100.00
2018-09-23T18:16:36.568Z,100.00
2018-09-23T18:19:03.996Z,100.00
2018-09-23T18:21:31.476Z,100.00
2018-09-23T18:23:58.761Z,100.00
2018-09-23T18:26:25.989Z,100.00
2018-09-23T18:28:53.212Z,100.00
2018-09-23T18:31:20.550Z,100.00
2018-09-23T18:33:48.164Z,100.00
2018-09-23T18:36:15.353Z,100.00
2018-09-23T18:38:42.529Z,100.00
2018-09-23T18:41:09.819Z,100.00
2018-09-23T18:43:37.211Z,100.00
2018-09-23T18:46:04.516Z,100.00
2018-09-23T18:48:31.741Z,100.00
2018-09-23T18:50:58.911Z,100.00
2018-09-23T18:53:26.167Z,100.00
2018-09-23T18:55:54.175Z,100.00
2018-09-23T18:58:21.379Z,100.00
2018-09-23T19:00:48.708Z,100.00
2018-09-23T19:03:16.158Z,100.00
2018-09-23T19:05:43.229Z,100.00
2018-09-23T19:08:10.432Z,100.00
2018-09-23T19:10:38.481Z,100.00
2018-09-23T19:13:11.414Z,100.00
2018-09-23T19:15:38.745Z,100.00
2018-09-23T19:18:06.584Z,100.00
2018-09-23T19:20:33.737Z,100.00
2018-09-23T19:23:06.645Z,100.00
2018-09-23T19:25:34.536Z,100.00
2018-09-23T19:28:01.901Z,100.00
2018-09-23T19:30:29.103Z,100.00
2018-09-23T19:32:56.770Z,100.00
2018-09-23T19:35:23.954Z,100.00
2018-09-23T19:37:51.819Z,100.00
2018-09-23T19:40:19.044Z,100.00
2018-09-23T19:42:46.267Z,100.00
2018-09-23T19:45:13.494Z,100.00
2018-09-23T19:47:40.746Z,100.00
2018-09-23T19:50:07.918Z,100.00
2018-09-23T19:52:35.139Z,100.00
2018-09-23T19:55:02.300Z,100.00
2018-09-23T19:57:29.495Z,100.00
2018-09-23T19:59:56.837Z,100.00
2018-09-23T20:02:24.177Z,100.00
2018-09-23T20:04:51.441Z,100.00
2018-09-23T20:07:18.587Z,100.00
2018-09-23T20:09:45.725Z,100.00
2018-09-23T20:12:12.833Z,100.00
2018-09-23T20:14:39.981Z,100.00
2018-09-23T20:17:07.212Z,100.00
2018-09-23T20:19:34.327Z,100.00
2018-09-23T20:22:01.486Z,100.00
2018-09-23T20:24:28.612Z,100.00
2018-09-23T20:26:55.765Z,100.00
2018-09-23T20:29:23.069Z,100.00
2018-09-23T20:31:50.164Z,100.00
2018-09-23T20:34:17.285Z,100.00
2018-09-23T20:36:44.500Z,100.00
2018-09-23T20:39:11.749Z,100.00
2018-09-23T20:41:38.969Z,100.00
2018-09-23T20:44:06.180Z,100.00
2018-09-23T20:46:33.415Z,100.00
2018-09-23T20:49:00.608Z,100.00
2018-09-23T20:51:27.859Z,100.00
2018-09-23T20:53:55.049Z,100.00
2018-09-23T20:56:22.145Z,100.00
2018-09-23T20:58:49.349Z,100.00
2018-09-23T21:01:16.485Z,100.00
2018-09-23T21:03:43.637Z,100.00
2018-09-23T21:06:10.853Z,100.00
2018-09-23T21:08:37.972Z,100.00
2018-09-23T21:11:05.208Z,100.00
2018-09-23T21:13:32.412Z,100.00
2018-09-23T21:15:59.517Z,100.00
2018-09-23T21:18:26.862Z,100.00
2018-09-23T21:20:54.057Z,100.00
2018-09-23T21:23:21.189Z,100.00
2018-09-23T21:25:48.357Z,100.00
2018-09-23T21:28:15.561Z,100.00
2018-09-23T21:30:42.766Z,100.00
2018-09-23T21:33:09.914Z,100.00
2018-09-23T21:35:37.129Z,100.00
2018-09-23T21:38:04.280Z,100.00
2018-09-23T21:40:31.405Z,100.00
2018-09-23T21:42:58.701Z,100.00
2018-09-23T21:45:25.844Z,100.00
2018-09-23T21:47:52.948Z,100.00
2018-09-23T21:50:20.142Z,100.00
2018-09-23T21:52:47.278Z,100.00
2018-09-23T21:55:14.502Z,100.00
2018-09-23T21:57:41.871Z,100.00
2018-09-23T22:00:09.661Z,100.00
2018-09-23T22:02:36.797Z,100.00
2018-09-23T22:05:04.096Z,100.00
2018-09-23T22:07:31.271Z,100.00
2018-09-23T22:09:58.489Z,100.00
2018-09-23T22:12:25.665Z,100.00
2018-09-23T22:14:52.795Z,100.00
2018-09-23T22:17:19.923Z,100.00
2018-09-23T22:19:47.120Z,100.00
2018-09-23T22:22:14.293Z,100.00
2018-09-23T22:24:41.424Z,100.00
2018-09-23T22:27:08.601Z,100.00
2018-09-23T22:29:35.721Z,100.00
2018-09-23T22:32:02.837Z,100.00
2018-09-23T22:34:30.004Z,100.00
2018-09-23T22:36:57.136Z,100.00
2018-09-23T22:39:24.324Z,100.00
2018-09-23T22:41:51.504Z,100.00
2018-09-23T22:44:18.629Z,100.00
2018-09-23T22:46:45.760Z,100.00
2018-09-23T22:49:13.013Z,100.00
2018-09-23T22:51:40.148Z,100.00
2018-09-23T22:54:07.288Z,100.00
2018-09-23T22:56:34.485Z,100.00
2018-09-23T22:59:01.693Z,100.00
2018-09-23T23:01:28.850Z,100.00
2018-09-23T23:03:56.039Z,100.00
2018-09-23T23:06:23.178Z,100.00
2018-09-23T23:08:50.439Z,100.00
2018-09-23T23:11:17.626Z,100.00
2018-09-23T23:13:44.757Z,100.00
2018-09-23T23:16:11.866Z,100.00
2018-09-23T23:18:39.064Z,100.00
2018-09-23T23:21:06.188Z,100.00
2018-09-23T23:23:33.367Z,100.00
2018-09-23T23:26:00.526Z,100.00
2018-09-23T23:28:27.663Z,100.00
2018-09-23T23:30:54.784Z,100.00
2018-09-23T23:33:22.068Z,100.00
2018-09-23T23:35:49.184Z,100.00
2018-09-23T23:38:16.287Z,100.00
2018-09-23T23:40:43.451Z,100.00
2018-09-23T23:43:10.582Z,100.00
2018-09-23T23:45:37.753Z,100.00
2018-09-23T23:48:05.076Z,100.00
2018-09-23T23:50:32.196Z,100.00
2018-09-23T23:52:59.373Z,100.00
2018-09-23T23:55:26.534Z,100.00
2018-09-23T23:57:53.660Z,100.00
